sensor_id;sensor_type;location;lat;lon;timestamp;P1;durP1;ratioP1;P2;durP2;ratioP2
71637;SDS011;59485;43.542;-5.676;2022-08-19T00:01:27;13.25;;;6.07;;
71637;SDS011;59485;43.542;-5.676;2022-08-19T00:03:54;14.98;;;6.45;;
71637;SDS011;59485;43.542;-5.676;2022-08-19T00:06:23;13.75;;;6.20;;
71637;SDS011;59485;43.542;-5.676;2022-08-19T00:08:48;15.50;;;6.10;;
71637;SDS011;59485;43.542;-5.676;2022-08-19T00:11:16;12.35;;;5.40;;
71637;SDS011;59485;43.542;-5.676;2022-08-19T00:13:42;12.82;;;6.13;;
71637;SDS011;59485;43.542;-5.676;2022-08-19T00:16:07;14.03;;;6.77;;
71637;SDS011;59485;43.542;-5.676;2022-08-19T00:18:33;14.02;;;6.63;;
71637;SDS011;59485;43.542;-5.676;2022-08-19T00:20:59;15.07;;;6.40;;
71637;SDS011;59485;43.542;-5.676;2022-08-19T00:23:25;13.50;;;5.93;;
71637;SDS011;59485;43.542;-5.676;2022-08-19T00:25:52;12.65;;;5.82;;
71637;SDS011;59485;43.542;-5.676;2022-08-19T00:28:18;14.93;;;7.10;;
71637;SDS011;59485;43.542;-5.676;2022-08-19T00:30:44;15.50;;;6.15;;
71637;SDS011;59485;43.542;-5.676;2022-08-19T00:33:09;13.90;;;5.80;;
71637;SDS011;59485;43.542;-5.676;2022-08-19T00:35:35;14.30;;;6.25;;
71637;SDS011;59485;43.542;-5.676;2022-08-19T00:38:03;12.25;;;6.40;;
71637;SDS011;59485;43.542;-5.676;2022-08-19T00:40:30;13.83;;;6.40;;
71637;SDS011;59485;43.542;-5.676;2022-08-19T00:42:56;15.30;;;6.18;;
71637;SDS011;59485;43.542;-5.676;2022-08-19T00:45:22;17.90;;;6.47;;
71637;SDS011;59485;43.542;-5.676;2022-08-19T00:47:49;15.25;;;6.22;;
71637;SDS011;59485;43.542;-5.676;2022-08-19T00:50:15;15.87;;;7.23;;
71637;SDS011;59485;43.542;-5.676;2022-08-19T00:52:43;14.85;;;6.70;;
71637;SDS011;59485;43.542;-5.676;2022-08-19T00:55:19;13.35;;;5.93;;
71637;SDS011;59485;43.542;-5.676;2022-08-19T00:57:49;14.55;;;6.75;;
71637;SDS011;59485;43.542;-5.676;2022-08-19T01:00:20;16.77;;;6.83;;
71637;SDS011;59485;43.542;-5.676;2022-08-19T01:02:47;18.00;;;7.53;;
71637;SDS011;59485;43.542;-5.676;2022-08-19T01:05:14;19.02;;;9.95;;
71637;SDS011;59485;43.542;-5.676;2022-08-19T01:07:45;22.20;;;9.85;;
71637;SDS011;59485;43.542;-5.676;2022-08-19T01:10:17;20.38;;;9.95;;
71637;SDS011;59485;43.542;-5.676;2022-08-19T01:12:47;21.53;;;10.13;;
71637;SDS011;59485;43.542;-5.676;2022-08-19T01:15:14;20.65;;;9.20;;
71637;SDS011;59485;43.542;-5.676;2022-08-19T01:17:43;19.23;;;8.55;;
71637;SDS011;59485;43.542;-5.676;2022-08-19T01:20:13;16.73;;;7.35;;
71637;SDS011;59485;43.542;-5.676;2022-08-19T01:22:43;15.65;;;7.75;;
71637;SDS011;59485;43.542;-5.676;2022-08-19T01:25:12;13.93;;;6.87;;
71637;SDS011;59485;43.542;-5.676;2022-08-19T01:27:43;14.95;;;7.38;;
71637;SDS011;59485;43.542;-5.676;2022-08-19T01:30:21;18.15;;;7.30;;
71637;SDS011;59485;43.542;-5.676;2022-08-19T01:32:51;16.20;;;7.25;;
71637;SDS011;59485;43.542;-5.676;2022-08-19T01:35:18;16.08;;;7.75;;
71637;SDS011;59485;43.542;-5.676;2022-08-19T01:37:56;17.33;;;7.47;;
71637;SDS011;59485;43.542;-5.676;2022-08-19T01:40:25;15.98;;;7.28;;
71637;SDS011;59485;43.542;-5.676;2022-08-19T01:42:52;17.13;;;8.25;;
71637;SDS011;59485;43.542;-5.676;2022-08-19T01:45:20;16.10;;;7.60;;
71637;SDS011;59485;43.542;-5.676;2022-08-19T01:47:48;19.35;;;7.53;;
71637;SDS011;59485;43.542;-5.676;2022-08-19T01:50:14;17.10;;;7.37;;
71637;SDS011;59485;43.542;-5.676;2022-08-19T01:52:40;15.88;;;7.60;;
71637;SDS011;59485;43.542;-5.676;2022-08-19T01:55:08;14.00;;;7.25;;
71637;SDS011;59485;43.542;-5.676;2022-08-19T01:57:37;17.23;;;8.03;;
71637;SDS011;59485;43.542;-5.676;2022-08-19T02:00:05;17.65;;;7.43;;
71637;SDS011;59485;43.542;-5.676;2022-08-19T02:02:35;15.70;;;7.97;;
71637;SDS011;59485;43.542;-5.676;2022-08-19T02:05:00;15.43;;;7.07;;
71637;SDS011;59485;43.542;-5.676;2022-08-19T02:07:26;14.33;;;7.53;;
71637;SDS011;59485;43.542;-5.676;2022-08-19T02:09:54;18.08;;;7.65;;
71637;SDS011;59485;43.542;-5.676;2022-08-19T02:12:20;17.42;;;7.75;;
71637;SDS011;59485;43.542;-5.676;2022-08-19T02:14:46;17.97;;;8.50;;
71637;SDS011;59485;43.542;-5.676;2022-08-19T02:17:12;17.15;;;7.63;;
71637;SDS011;59485;43.542;-5.676;2022-08-19T02:19:37;19.07;;;7.50;;
71637;SDS011;59485;43.542;-5.676;2022-08-19T02:22:03;15.90;;;7.93;;
71637;SDS011;59485;43.542;-5.676;2022-08-19T02:24:29;15.77;;;7.87;;
71637;SDS011;59485;43.542;-5.676;2022-08-19T02:26:54;15.98;;;7.72;;
71637;SDS011;59485;43.542;-5.676;2022-08-19T02:29:20;14.63;;;7.63;;
71637;SDS011;59485;43.542;-5.676;2022-08-19T02:31:48;19.55;;;8.38;;
71637;SDS011;59485;43.542;-5.676;2022-08-19T02:34:14;16.37;;;7.90;;
71637;SDS011;59485;43.542;-5.676;2022-08-19T02:36:39;16.33;;;8.20;;
71637;SDS011;59485;43.542;-5.676;2022-08-19T02:39:05;18.58;;;8.05;;
71637;SDS011;59485;43.542;-5.676;2022-08-19T02:41:32;17.33;;;8.13;;
71637;SDS011;59485;43.542;-5.676;2022-08-19T02:43:59;15.10;;;7.13;;
71637;SDS011;59485;43.542;-5.676;2022-08-19T02:46:28;18.17;;;8.20;;
71637;SDS011;59485;43.542;-5.676;2022-08-19T02:48:56;16.03;;;7.60;;
71637;SDS011;59485;43.542;-5.676;2022-08-19T02:51:25;16.10;;;7.65;;
71637;SDS011;59485;43.542;-5.676;2022-08-19T02:53:52;14.77;;;8.00;;
71637;SDS011;59485;43.542;-5.676;2022-08-19T02:56:18;18.20;;;8.60;;
71637;SDS011;59485;43.542;-5.676;2022-08-19T02:58:45;20.17;;;7.53;;
71637;SDS011;59485;43.542;-5.676;2022-08-19T03:01:18;16.53;;;8.60;;
71637;SDS011;59485;43.542;-5.676;2022-08-19T03:03:55;16.00;;;7.45;;
71637;SDS011;59485;43.542;-5.676;2022-08-19T03:06:22;16.95;;;8.82;;
71637;SDS011;59485;43.542;-5.676;2022-08-19T03:08:48;16.10;;;7.53;;
71637;SDS011;59485;43.542;-5.676;2022-08-19T03:11:22;17.23;;;8.00;;
71637;SDS011;59485;43.542;-5.676;2022-08-19T03:13:50;16.35;;;7.70;;
71637;SDS011;59485;43.542;-5.676;2022-08-19T03:16:16;17.02;;;8.02;;
71637;SDS011;59485;43.542;-5.676;2022-08-19T03:18:42;19.08;;;8.82;;
71637;SDS011;59485;43.542;-5.676;2022-08-19T03:21:08;18.50;;;7.53;;
71637;SDS011;59485;43.542;-5.676;2022-08-19T03:23:35;19.08;;;8.38;;
71637;SDS011;59485;43.542;-5.676;2022-08-19T03:26:03;17.15;;;8.35;;
71637;SDS011;59485;43.542;-5.676;2022-08-19T03:28:32;19.85;;;8.68;;
71637;SDS011;59485;43.542;-5.676;2022-08-19T03:31:10;19.87;;;7.80;;
71637;SDS011;59485;43.542;-5.676;2022-08-19T03:33:37;18.10;;;8.13;;
71637;SDS011;59485;43.542;-5.676;2022-08-19T03:36:17;16.02;;;8.40;;
71637;SDS011;59485;43.542;-5.676;2022-08-19T03:38:46;17.08;;;8.10;;
71637;SDS011;59485;43.542;-5.676;2022-08-19T03:41:16;17.75;;;8.63;;
71637;SDS011;59485;43.542;-5.676;2022-08-19T03:43:44;18.83;;;7.87;;
71637;SDS011;59485;43.542;-5.676;2022-08-19T03:46:15;19.75;;;8.52;;
71637;SDS011;59485;43.542;-5.676;2022-08-19T03:48:45;16.60;;;8.48;;
71637;SDS011;59485;43.542;-5.676;2022-08-19T03:51:18;17.08;;;7.90;;
71637;SDS011;59485;43.542;-5.676;2022-08-19T03:53:46;16.95;;;7.85;;
71637;SDS011;59485;43.542;-5.676;2022-08-19T03:56:12;21.23;;;7.40;;
71637;SDS011;59485;43.542;-5.676;2022-08-19T03:58:38;19.92;;;8.23;;
71637;SDS011;59485;43.542;-5.676;2022-08-19T04:01:08;16.70;;;7.65;;
71637;SDS011;59485;43.542;-5.676;2022-08-19T04:03:35;15.75;;;9.07;;
71637;SDS011;59485;43.542;-5.676;2022-08-19T04:06:14;20.73;;;8.23;;
71637;SDS011;59485;43.542;-5.676;2022-08-19T04:08:42;15.75;;;8.40;;
71637;SDS011;59485;43.542;-5.676;2022-08-19T04:11:11;22.23;;;9.27;;
71637;SDS011;59485;43.542;-5.676;2022-08-19T04:13:39;18.95;;;9.20;;
71637;SDS011;59485;43.542;-5.676;2022-08-19T04:16:05;17.43;;;8.97;;
71637;SDS011;59485;43.542;-5.676;2022-08-19T04:18:32;17.20;;;8.77;;
71637;SDS011;59485;43.542;-5.676;2022-08-19T04:20:58;15.73;;;8.23;;
71637;SDS011;59485;43.542;-5.676;2022-08-19T04:23:24;16.45;;;8.50;;
71637;SDS011;59485;43.542;-5.676;2022-08-19T04:25:50;21.10;;;9.00;;
71637;SDS011;59485;43.542;-5.676;2022-08-19T04:28:15;23.50;;;9.53;;
71637;SDS011;59485;43.542;-5.676;2022-08-19T04:30:42;18.20;;;8.82;;
71637;SDS011;59485;43.542;-5.676;2022-08-19T04:33:10;17.10;;;9.00;;
71637;SDS011;59485;43.542;-5.676;2022-08-19T04:35:39;22.15;;;8.90;;
71637;SDS011;59485;43.542;-5.676;2022-08-19T04:38:07;18.52;;;8.82;;
71637;SDS011;59485;43.542;-5.676;2022-08-19T04:40:34;21.60;;;8.97;;
71637;SDS011;59485;43.542;-5.676;2022-08-19T04:43:22;19.83;;;8.90;;
71637;SDS011;59485;43.542;-5.676;2022-08-19T04:45:48;19.57;;;8.80;;
71637;SDS011;59485;43.542;-5.676;2022-08-19T04:48:13;20.50;;;9.27;;
71637;SDS011;59485;43.542;-5.676;2022-08-19T04:50:40;19.50;;;9.27;;
71637;SDS011;59485;43.542;-5.676;2022-08-19T04:53:07;16.92;;;9.07;;
71637;SDS011;59485;43.542;-5.676;2022-08-19T04:55:33;20.15;;;9.35;;
71637;SDS011;59485;43.542;-5.676;2022-08-19T04:58:00;17.67;;;9.30;;
71637;SDS011;59485;43.542;-5.676;2022-08-19T05:00:27;19.87;;;10.23;;
71637;SDS011;59485;43.542;-5.676;2022-08-19T05:02:53;19.05;;;9.38;;
71637;SDS011;59485;43.542;-5.676;2022-08-19T05:05:18;17.00;;;8.37;;
71637;SDS011;59485;43.542;-5.676;2022-08-19T05:07:44;19.23;;;8.60;;
71637;SDS011;59485;43.542;-5.676;2022-08-19T05:10:10;19.60;;;9.45;;
71637;SDS011;59485;43.542;-5.676;2022-08-19T05:12:36;18.93;;;9.03;;
71637;SDS011;59485;43.542;-5.676;2022-08-19T05:15:03;17.20;;;9.35;;
71637;SDS011;59485;43.542;-5.676;2022-08-19T05:17:30;20.27;;;9.63;;
71637;SDS011;59485;43.542;-5.676;2022-08-19T05:19:56;20.70;;;9.10;;
71637;SDS011;59485;43.542;-5.676;2022-08-19T05:22:41;23.48;;;8.95;;
71637;SDS011;59485;43.542;-5.676;2022-08-19T05:25:10;16.00;;;8.85;;
71637;SDS011;59485;43.542;-5.676;2022-08-19T05:27:37;21.30;;;8.93;;
71637;SDS011;59485;43.542;-5.676;2022-08-19T05:30:03;21.40;;;9.50;;
71637;SDS011;59485;43.542;-5.676;2022-08-19T05:32:30;21.77;;;10.02;;
71637;SDS011;59485;43.542;-5.676;2022-08-19T05:34:55;21.13;;;10.70;;
71637;SDS011;59485;43.542;-5.676;2022-08-19T05:37:21;22.00;;;9.70;;
71637;SDS011;59485;43.542;-5.676;2022-08-19T05:39:47;20.52;;;10.00;;
71637;SDS011;59485;43.542;-5.676;2022-08-19T05:42:14;19.93;;;9.90;;
71637;SDS011;59485;43.542;-5.676;2022-08-19T05:44:41;22.13;;;11.05;;
71637;SDS011;59485;43.542;-5.676;2022-08-19T05:47:14;20.95;;;10.50;;
71637;SDS011;59485;43.542;-5.676;2022-08-19T05:49:40;21.45;;;11.18;;
71637;SDS011;59485;43.542;-5.676;2022-08-19T05:52:07;23.80;;;11.70;;
71637;SDS011;59485;43.542;-5.676;2022-08-19T05:54:36;24.63;;;11.33;;
71637;SDS011;59485;43.542;-5.676;2022-08-19T05:57:05;24.13;;;11.45;;
71637;SDS011;59485;43.542;-5.676;2022-08-19T05:59:31;20.58;;;12.07;;
71637;SDS011;59485;43.542;-5.676;2022-08-19T06:02:00;21.63;;;11.23;;
71637;SDS011;59485;43.542;-5.676;2022-08-19T06:04:27;22.60;;;10.93;;
71637;SDS011;59485;43.542;-5.676;2022-08-19T06:06:53;24.17;;;11.37;;
71637;SDS011;59485;43.542;-5.676;2022-08-19T06:09:22;22.52;;;10.90;;
71637;SDS011;59485;43.542;-5.676;2022-08-19T06:11:49;21.77;;;11.57;;
71637;SDS011;59485;43.542;-5.676;2022-08-19T06:14:21;21.83;;;11.32;;
71637;SDS011;59485;43.542;-5.676;2022-08-19T06:16:49;21.15;;;10.48;;
71637;SDS011;59485;43.542;-5.676;2022-08-19T06:19:18;23.00;;;11.67;;
71637;SDS011;59485;43.542;-5.676;2022-08-19T06:21:45;20.08;;;11.75;;
71637;SDS011;59485;43.542;-5.676;2022-08-19T06:24:14;21.30;;;11.10;;
71637;SDS011;59485;43.542;-5.676;2022-08-19T06:26:44;22.83;;;10.57;;
71637;SDS011;59485;43.542;-5.676;2022-08-19T06:29:12;19.77;;;10.18;;
71637;SDS011;59485;43.542;-5.676;2022-08-19T06:31:46;19.00;;;10.13;;
71637;SDS011;59485;43.542;-5.676;2022-08-19T06:34:14;20.27;;;10.30;;
71637;SDS011;59485;43.542;-5.676;2022-08-19T06:36:42;16.05;;;8.63;;
71637;SDS011;59485;43.542;-5.676;2022-08-19T06:39:11;20.67;;;9.38;;
71637;SDS011;59485;43.542;-5.676;2022-08-19T06:41:49;19.38;;;10.90;;
71637;SDS011;59485;43.542;-5.676;2022-08-19T06:44:16;23.73;;;12.10;;
71637;SDS011;59485;43.542;-5.676;2022-08-19T06:46:43;20.38;;;10.13;;
71637;SDS011;59485;43.542;-5.676;2022-08-19T06:49:09;20.60;;;10.50;;
71637;SDS011;59485;43.542;-5.676;2022-08-19T06:51:38;22.02;;;9.93;;
71637;SDS011;59485;43.542;-5.676;2022-08-19T06:54:05;19.03;;;9.70;;
71637;SDS011;59485;43.542;-5.676;2022-08-19T06:56:31;18.17;;;10.05;;
71637;SDS011;59485;43.542;-5.676;2022-08-19T06:59:05;17.02;;;10.13;;
71637;SDS011;59485;43.542;-5.676;2022-08-19T07:01:39;19.30;;;9.43;;
71637;SDS011;59485;43.542;-5.676;2022-08-19T07:04:07;20.30;;;9.27;;
71637;SDS011;59485;43.542;-5.676;2022-08-19T07:06:34;17.30;;;9.07;;
71637;SDS011;59485;43.542;-5.676;2022-08-19T07:09:00;16.35;;;9.30;;
71637;SDS011;59485;43.542;-5.676;2022-08-19T07:11:27;19.55;;;9.10;;
71637;SDS011;59485;43.542;-5.676;2022-08-19T07:13:53;15.10;;;8.57;;
71637;SDS011;59485;43.542;-5.676;2022-08-19T07:16:21;16.40;;;9.60;;
71637;SDS011;59485;43.542;-5.676;2022-08-19T07:18:47;18.40;;;8.97;;
71637;SDS011;59485;43.542;-5.676;2022-08-19T07:21:19;17.35;;;8.48;;
71637;SDS011;59485;43.542;-5.676;2022-08-19T07:23:49;17.23;;;7.72;;
71637;SDS011;59485;43.542;-5.676;2022-08-19T07:26:18;15.63;;;8.38;;
71637;SDS011;59485;43.542;-5.676;2022-08-19T07:28:47;16.43;;;8.17;;
71637;SDS011;59485;43.542;-5.676;2022-08-19T07:31:14;16.52;;;8.43;;
71637;SDS011;59485;43.542;-5.676;2022-08-19T07:33:44;18.50;;;9.52;;
71637;SDS011;59485;43.542;-5.676;2022-08-19T07:36:12;15.82;;;8.68;;
71637;SDS011;59485;43.542;-5.676;2022-08-19T07:38:41;16.70;;;8.98;;
71637;SDS011;59485;43.542;-5.676;2022-08-19T07:41:09;17.73;;;8.70;;
71637;SDS011;59485;43.542;-5.676;2022-08-19T07:43:39;14.07;;;8.23;;
71637;SDS011;59485;43.542;-5.676;2022-08-19T07:46:06;19.67;;;9.00;;
71637;SDS011;59485;43.542;-5.676;2022-08-19T07:48:32;14.73;;;8.30;;
71637;SDS011;59485;43.542;-5.676;2022-08-19T07:50:59;16.37;;;9.10;;
71637;SDS011;59485;43.542;-5.676;2022-08-19T07:53:29;13.07;;;7.75;;
71637;SDS011;59485;43.542;-5.676;2022-08-19T07:55:56;15.52;;;9.05;;
71637;SDS011;59485;43.542;-5.676;2022-08-19T07:58:29;17.45;;;9.05;;
71637;SDS011;59485;43.542;-5.676;2022-08-19T08:01:04;15.82;;;8.80;;
71637;SDS011;59485;43.542;-5.676;2022-08-19T08:03:31;15.80;;;8.53;;
71637;SDS011;59485;43.542;-5.676;2022-08-19T08:06:16;13.77;;;8.23;;
71637;SDS011;59485;43.542;-5.676;2022-08-19T08:09:01;16.13;;;8.65;;
71637;SDS011;59485;43.542;-5.676;2022-08-19T08:11:41;18.10;;;9.25;;
71637;SDS011;59485;43.542;-5.676;2022-08-19T08:14:20;15.18;;;8.00;;
71637;SDS011;59485;43.542;-5.676;2022-08-19T08:16:51;13.73;;;7.10;;
71637;SDS011;59485;43.542;-5.676;2022-08-19T08:19:18;14.13;;;7.53;;
71637;SDS011;59485;43.542;-5.676;2022-08-19T08:21:45;12.70;;;6.55;;
71637;SDS011;59485;43.542;-5.676;2022-08-19T08:24:12;15.43;;;7.05;;
71637;SDS011;59485;43.542;-5.676;2022-08-19T08:26:38;14.60;;;7.63;;
71637;SDS011;59485;43.542;-5.676;2022-08-19T08:29:04;14.43;;;7.45;;
71637;SDS011;59485;43.542;-5.676;2022-08-19T08:31:29;14.47;;;7.23;;
71637;SDS011;59485;43.542;-5.676;2022-08-19T08:33:55;18.27;;;7.15;;
71637;SDS011;59485;43.542;-5.676;2022-08-19T08:36:21;12.97;;;6.30;;
71637;SDS011;59485;43.542;-5.676;2022-08-19T08:38:46;11.48;;;6.35;;
71637;SDS011;59485;43.542;-5.676;2022-08-19T08:43:49;15.13;;;6.90;;
71637;SDS011;59485;43.542;-5.676;2022-08-19T08:46:30;9.32;;;6.20;;
71637;SDS011;59485;43.542;-5.676;2022-08-19T08:49:22;14.18;;;7.20;;
71637;SDS011;59485;43.542;-5.676;2022-08-19T08:52:00;11.25;;;6.45;;
71637;SDS011;59485;43.542;-5.676;2022-08-19T08:54:41;13.23;;;6.47;;
71637;SDS011;59485;43.542;-5.676;2022-08-19T08:57:18;14.40;;;6.93;;
71637;SDS011;59485;43.542;-5.676;2022-08-19T09:00:00;13.88;;;6.50;;
71637;SDS011;59485;43.542;-5.676;2022-08-19T09:02:30;13.02;;;6.35;;
71637;SDS011;59485;43.542;-5.676;2022-08-19T09:04:57;13.82;;;6.55;;
71637;SDS011;59485;43.542;-5.676;2022-08-19T09:10:07;13.48;;;6.53;;
71637;SDS011;59485;43.542;-5.676;2022-08-19T09:15:22;19.70;;;7.53;;
71637;SDS011;59485;43.542;-5.676;2022-08-19T09:17:59;16.02;;;7.15;;
71637;SDS011;59485;43.542;-5.676;2022-08-19T09:20:26;14.43;;;6.70;;
71637;SDS011;59485;43.542;-5.676;2022-08-19T09:22:52;13.43;;;6.70;;
71637;SDS011;59485;43.542;-5.676;2022-08-19T09:25:19;12.32;;;7.28;;
71637;SDS011;59485;43.542;-5.676;2022-08-19T09:27:50;11.80;;;6.07;;
71637;SDS011;59485;43.542;-5.676;2022-08-19T09:30:27;12.35;;;6.38;;
71637;SDS011;59485;43.542;-5.676;2022-08-19T09:32:58;12.25;;;5.93;;
71637;SDS011;59485;43.542;-5.676;2022-08-19T09:35:25;15.90;;;6.13;;
71637;SDS011;59485;43.542;-5.676;2022-08-19T09:37:53;13.95;;;5.82;;
71637;SDS011;59485;43.542;-5.676;2022-08-19T09:40:20;11.83;;;5.27;;
71637;SDS011;59485;43.542;-5.676;2022-08-19T09:42:45;12.52;;;5.68;;
71637;SDS011;59485;43.542;-5.676;2022-08-19T09:45:13;14.25;;;5.90;;
71637;SDS011;59485;43.542;-5.676;2022-08-19T09:47:42;17.17;;;6.22;;
71637;SDS011;59485;43.542;-5.676;2022-08-19T09:50:09;13.60;;;5.53;;
71637;SDS011;59485;43.542;-5.676;2022-08-19T09:52:38;11.93;;;5.22;;
71637;SDS011;59485;43.542;-5.676;2022-08-19T09:55:04;11.73;;;6.10;;
71637;SDS011;59485;43.542;-5.676;2022-08-19T09:57:34;14.93;;;5.47;;
71637;SDS011;59485;43.542;-5.676;2022-08-19T10:00:00;12.35;;;5.45;;
71637;SDS011;59485;43.542;-5.676;2022-08-19T10:02:27;14.52;;;6.00;;
71637;SDS011;59485;43.542;-5.676;2022-08-19T10:04:52;13.77;;;5.80;;
71637;SDS011;59485;43.542;-5.676;2022-08-19T10:07:36;11.73;;;5.93;;
71637;SDS011;59485;43.542;-5.676;2022-08-19T10:10:05;13.18;;;6.03;;
71637;SDS011;59485;43.542;-5.676;2022-08-19T10:12:32;15.27;;;6.30;;
71637;SDS011;59485;43.542;-5.676;2022-08-19T10:14:58;14.50;;;6.37;;
71637;SDS011;59485;43.542;-5.676;2022-08-19T10:17:24;12.73;;;5.93;;
71637;SDS011;59485;43.542;-5.676;2022-08-19T10:19:50;12.57;;;6.68;;
71637;SDS011;59485;43.542;-5.676;2022-08-19T10:22:17;12.13;;;5.50;;
71637;SDS011;59485;43.542;-5.676;2022-08-19T10:24:43;13.47;;;6.47;;
71637;SDS011;59485;43.542;-5.676;2022-08-19T10:27:10;19.33;;;5.97;;
71637;SDS011;59485;43.542;-5.676;2022-08-19T10:29:38;13.05;;;5.93;;
71637;SDS011;59485;43.542;-5.676;2022-08-19T10:32:04;17.15;;;6.72;;
71637;SDS011;59485;43.542;-5.676;2022-08-19T10:34:32;13.07;;;6.60;;
71637;SDS011;59485;43.542;-5.676;2022-08-19T10:36:59;14.82;;;7.38;;
71637;SDS011;59485;43.542;-5.676;2022-08-19T10:39:30;15.80;;;6.25;;
71637;SDS011;59485;43.542;-5.676;2022-08-19T10:41:57;11.65;;;6.03;;
71637;SDS011;59485;43.542;-5.676;2022-08-19T10:44:23;10.02;;;6.65;;
71637;SDS011;59485;43.542;-5.676;2022-08-19T10:46:49;11.83;;;6.47;;
71637;SDS011;59485;43.542;-5.676;2022-08-19T10:49:14;14.98;;;6.70;;
71637;SDS011;59485;43.542;-5.676;2022-08-19T10:51:40;12.97;;;6.77;;
71637;SDS011;59485;43.542;-5.676;2022-08-19T10:54:25;14.68;;;6.72;;
71637;SDS011;59485;43.542;-5.676;2022-08-19T10:57:11;11.75;;;6.07;;
71637;SDS011;59485;43.542;-5.676;2022-08-19T10:59:37;14.53;;;6.83;;
71637;SDS011;59485;43.542;-5.676;2022-08-19T11:02:05;15.95;;;6.75;;
71637;SDS011;59485;43.542;-5.676;2022-08-19T11:04:32;16.75;;;6.35;;
71637;SDS011;59485;43.542;-5.676;2022-08-19T11:06:58;14.93;;;6.97;;
71637;SDS011;59485;43.542;-5.676;2022-08-19T11:09:24;14.30;;;7.43;;
71637;SDS011;59485;43.542;-5.676;2022-08-19T11:11:54;14.23;;;6.28;;
71637;SDS011;59485;43.542;-5.676;2022-08-19T11:14:21;15.10;;;8.15;;
71637;SDS011;59485;43.542;-5.676;2022-08-19T11:16:48;13.53;;;6.70;;
71637;SDS011;59485;43.542;-5.676;2022-08-19T11:19:15;12.15;;;6.22;;
71637;SDS011;59485;43.542;-5.676;2022-08-19T11:21:44;11.63;;;6.40;;
71637;SDS011;59485;43.542;-5.676;2022-08-19T11:24:16;12.15;;;5.90;;
71637;SDS011;59485;43.542;-5.676;2022-08-19T11:26:45;12.45;;;5.68;;
71637;SDS011;59485;43.542;-5.676;2022-08-19T11:29:14;13.30;;;5.00;;
71637;SDS011;59485;43.542;-5.676;2022-08-19T11:31:42;12.13;;;5.07;;
71637;SDS011;59485;43.542;-5.676;2022-08-19T11:34:12;10.57;;;4.95;;
71637;SDS011;59485;43.542;-5.676;2022-08-19T11:36:42;15.98;;;8.25;;
71637;SDS011;59485;43.542;-5.676;2022-08-19T11:39:10;18.40;;;10.80;;
71637;SDS011;59485;43.542;-5.676;2022-08-19T11:41:38;14.23;;;6.47;;
71637;SDS011;59485;43.542;-5.676;2022-08-19T11:44:04;9.90;;;5.72;;
71637;SDS011;59485;43.542;-5.676;2022-08-19T11:46:31;12.32;;;6.07;;
71637;SDS011;59485;43.542;-5.676;2022-08-19T11:48:57;11.93;;;7.83;;
71637;SDS011;59485;43.542;-5.676;2022-08-19T11:51:28;8.05;;;4.88;;
71637;SDS011;59485;43.542;-5.676;2022-08-19T11:53:54;11.55;;;5.07;;
71637;SDS011;59485;43.542;-5.676;2022-08-19T11:56:21;10.63;;;4.05;;
71637;SDS011;59485;43.542;-5.676;2022-08-19T11:58:49;12.18;;;4.13;;
71637;SDS011;59485;43.542;-5.676;2022-08-19T12:01:17;11.17;;;3.80;;
71637;SDS011;59485;43.542;-5.676;2022-08-19T12:03:45;14.95;;;5.47;;
71637;SDS011;59485;43.542;-5.676;2022-08-19T12:06:13;13.10;;;7.45;;
71637;SDS011;59485;43.542;-5.676;2022-08-19T12:08:41;10.35;;;4.80;;
71637;SDS011;59485;43.542;-5.676;2022-08-19T12:11:08;14.50;;;6.53;;
71637;SDS011;59485;43.542;-5.676;2022-08-19T12:13:35;12.23;;;5.30;;
71637;SDS011;59485;43.542;-5.676;2022-08-19T12:16:06;14.07;;;4.88;;
71637;SDS011;59485;43.542;-5.676;2022-08-19T12:18:37;12.63;;;4.78;;
71637;SDS011;59485;43.542;-5.676;2022-08-19T12:21:03;12.38;;;5.80;;
71637;SDS011;59485;43.542;-5.676;2022-08-19T12:23:29;11.27;;;6.40;;
71637;SDS011;59485;43.542;-5.676;2022-08-19T12:25:54;13.85;;;6.63;;
71637;SDS011;59485;43.542;-5.676;2022-08-19T12:28:23;18.85;;;9.90;;
71637;SDS011;59485;43.542;-5.676;2022-08-19T12:30:49;13.17;;;5.70;;
71637;SDS011;59485;43.542;-5.676;2022-08-19T12:33:16;12.98;;;6.25;;
71637;SDS011;59485;43.542;-5.676;2022-08-19T12:35:44;16.52;;;7.40;;
71637;SDS011;59485;43.542;-5.676;2022-08-19T12:38:12;9.25;;;4.43;;
71637;SDS011;59485;43.542;-5.676;2022-08-19T12:40:39;13.40;;;6.78;;
71637;SDS011;59485;43.542;-5.676;2022-08-19T12:43:05;12.13;;;5.20;;
71637;SDS011;59485;43.542;-5.676;2022-08-19T12:45:32;11.40;;;5.40;;
71637;SDS011;59485;43.542;-5.676;2022-08-19T12:47:58;12.00;;;6.22;;
71637;SDS011;59485;43.542;-5.676;2022-08-19T12:50:24;15.07;;;7.93;;
71637;SDS011;59485;43.542;-5.676;2022-08-19T12:52:50;14.30;;;6.63;;
71637;SDS011;59485;43.542;-5.676;2022-08-19T12:55:15;13.87;;;7.33;;
71637;SDS011;59485;43.542;-5.676;2022-08-19T12:57:43;11.40;;;5.63;;
71637;SDS011;59485;43.542;-5.676;2022-08-19T13:00:11;18.60;;;8.60;;
71637;SDS011;59485;43.542;-5.676;2022-08-19T13:02:39;13.43;;;6.65;;
71637;SDS011;59485;43.542;-5.676;2022-08-19T13:05:07;15.57;;;7.07;;
71637;SDS011;59485;43.542;-5.676;2022-08-19T13:07:36;12.47;;;6.00;;
71637;SDS011;59485;43.542;-5.676;2022-08-19T13:10:04;12.60;;;5.60;;
71637;SDS011;59485;43.542;-5.676;2022-08-19T13:12:31;12.15;;;6.07;;
71637;SDS011;59485;43.542;-5.676;2022-08-19T13:14:56;12.57;;;5.40;;
71637;SDS011;59485;43.542;-5.676;2022-08-19T13:17:22;9.45;;;5.60;;
71637;SDS011;59485;43.542;-5.676;2022-08-19T13:19:48;17.27;;;8.13;;
71637;SDS011;59485;43.542;-5.676;2022-08-19T13:22:13;17.25;;;8.68;;
71637;SDS011;59485;43.542;-5.676;2022-08-19T13:24:39;15.80;;;6.80;;
71637;SDS011;59485;43.542;-5.676;2022-08-19T13:27:04;13.10;;;5.18;;
71637;SDS011;59485;43.542;-5.676;2022-08-19T13:29:31;10.27;;;4.30;;
71637;SDS011;59485;43.542;-5.676;2022-08-19T13:32:15;11.57;;;4.35;;
71637;SDS011;59485;43.542;-5.676;2022-08-19T13:34:59;8.18;;;4.50;;
71637;SDS011;59485;43.542;-5.676;2022-08-19T13:37:25;10.17;;;4.17;;
71637;SDS011;59485;43.542;-5.676;2022-08-19T13:40:16;8.88;;;4.28;;
71637;SDS011;59485;43.542;-5.676;2022-08-19T13:42:44;10.23;;;3.97;;
71637;SDS011;59485;43.542;-5.676;2022-08-19T13:45:13;8.18;;;3.70;;
71637;SDS011;59485;43.542;-5.676;2022-08-19T13:47:40;8.65;;;4.13;;
71637;SDS011;59485;43.542;-5.676;2022-08-19T13:50:10;11.17;;;4.33;;
71637;SDS011;59485;43.542;-5.676;2022-08-19T13:52:38;12.75;;;5.28;;
71637;SDS011;59485;43.542;-5.676;2022-08-19T13:55:05;10.57;;;5.20;;
71637;SDS011;59485;43.542;-5.676;2022-08-19T13:57:31;10.32;;;4.28;;
71637;SDS011;59485;43.542;-5.676;2022-08-19T13:59:58;10.63;;;5.03;;
71637;SDS011;59485;43.542;-5.676;2022-08-19T14:02:23;16.77;;;4.20;;
71637;SDS011;59485;43.542;-5.676;2022-08-19T14:04:49;8.70;;;4.95;;
71637;SDS011;59485;43.542;-5.676;2022-08-19T14:07:15;10.17;;;5.13;;
71637;SDS011;59485;43.542;-5.676;2022-08-19T14:09:41;10.77;;;4.85;;
71637;SDS011;59485;43.542;-5.676;2022-08-19T14:12:07;11.27;;;4.17;;
71637;SDS011;59485;43.542;-5.676;2022-08-19T14:14:36;10.05;;;4.97;;
71637;SDS011;59485;43.542;-5.676;2022-08-19T14:17:05;9.45;;;4.45;;
71637;SDS011;59485;43.542;-5.676;2022-08-19T14:19:32;12.05;;;4.30;;
71637;SDS011;59485;43.542;-5.676;2022-08-19T14:21:58;11.23;;;4.63;;
71637;SDS011;59485;43.542;-5.676;2022-08-19T14:24:23;9.70;;;4.50;;
71637;SDS011;59485;43.542;-5.676;2022-08-19T14:26:49;7.00;;;3.80;;
71637;SDS011;59485;43.542;-5.676;2022-08-19T14:29:15;10.05;;;3.70;;
71637;SDS011;59485;43.542;-5.676;2022-08-19T14:31:41;11.00;;;4.43;;
71637;SDS011;59485;43.542;-5.676;2022-08-19T14:34:08;11.05;;;4.20;;
71637;SDS011;59485;43.542;-5.676;2022-08-19T14:36:35;11.80;;;4.40;;